Aviation Digital Data Service (ADDS)

Output produced by METARs form (0757 UTC 18 September 2021)
found at http://www.aviationweather.gov/metar/data/
 
METAR text: UBBG 180730Z 32010KT 280V360 9999 SCT100 23/15 Q1015 R30/CLRD// NOSIG
Conditions at: UBBG (GYANDZHA , AZ) observed 0730 UTC 18 September 2021
Temperature: 23.0°C (73°F)
Dewpoint: 15.0°C (59°F) [RH = 61%]
Pressure (altimeter): 29.97 inches Hg (1015.0 mb)
Winds: from the NW (320 degrees) at 12 MPH (10 knots; 5.1 m/s)
Visibility: 6 or more miles (10+ km)
Ceiling: at least 12,000 feet AGL
Clouds: scattered clouds at 10000 feet AGL
Weather: no significant weather observed at this time

METAR text: UBBG 180700Z 31010KT 9999 SCT100 22/15 Q1016 R30/CLRD// NOSIG
Conditions at: UBBG (GYANDZHA , AZ) observed 0700 UTC 18 September 2021
Temperature: 22.0°C (72°F)
Dewpoint: 15.0°C (59°F) [RH = 65%]
Pressure (altimeter): 30.00 inches Hg (1016.0 mb)
Winds: from the NW (310 degrees) at 12 MPH (10 knots; 5.1 m/s)
Visibility: 6 or more miles (10+ km)
Ceiling: at least 12,000 feet AGL
Clouds: scattered clouds at 10000 feet AGL
Weather: no significant weather observed at this time

METAR text: UBBG 180630Z 30010KT 260V330 9999 SCT100 21/15 Q1016 R30/CLRD// NOSIG
Conditions at: UBBG (GYANDZHA , AZ) observed 0630 UTC 18 September 2021
Temperature: 21.0°C (70°F)
Dewpoint: 15.0°C (59°F) [RH = 69%]
Pressure (altimeter): 30.00 inches Hg (1016.0 mb)
Winds: from the WNW (300 degrees) at 12 MPH (10 knots; 5.1 m/s)
Visibility: 6 or more miles (10+ km)
Ceiling: at least 12,000 feet AGL
Clouds: scattered clouds at 10000 feet AGL
Weather: no significant weather observed at this time

METAR text: UBBG 180600Z 32008KT 9999 SCT100 21/15 Q1016 R30/190065 NOSIG
Conditions at: UBBG (GYANDZHA , AZ) observed 0600 UTC 18 September 2021
Temperature: 21.0°C (70°F)
Dewpoint: 15.0°C (59°F) [RH = 69%]
Pressure (altimeter): 30.00 inches Hg (1016.0 mb)
Winds: from the NW (320 degrees) at 9 MPH (8 knots; 4.1 m/s)
Visibility: 6 or more miles (10+ km)
Ceiling: at least 12,000 feet AGL
Clouds: scattered clouds at 10000 feet AGL
Weather: no significant weather observed at this time

METAR text: UBBG 180530Z 31008KT 280V340 9999 SCT100 20/15 Q1016 R30/190065 NOSIG
Conditions at: UBBG (GYANDZHA , AZ) observed 0530 UTC 18 September 2021
Temperature: 20.0°C (68°F)
Dewpoint: 15.0°C (59°F) [RH = 73%]
Pressure (altimeter): 30.00 inches Hg (1016.0 mb)
Winds: from the NW (310 degrees) at 9 MPH (8 knots; 4.1 m/s)
Visibility: 6 or more miles (10+ km)
Ceiling: at least 12,000 feet AGL
Clouds: scattered clouds at 10000 feet AGL
Weather: no significant weather observed at this time

METAR text: UBBG 180500Z 31008KT 9999 SCT100 20/15 Q1016 R30/190065 NOSIG
Conditions at: UBBG (GYANDZHA , AZ) observed 0500 UTC 18 September 2021
Temperature: 20.0°C (68°F)
Dewpoint: 15.0°C (59°F) [RH = 73%]
Pressure (altimeter): 30.00 inches Hg (1016.0 mb)
Winds: from the NW (310 degrees) at 9 MPH (8 knots; 4.1 m/s)
Visibility: 6 or more miles (10+ km)
Ceiling: at least 12,000 feet AGL
Clouds: scattered clouds at 10000 feet AGL
Weather: no significant weather observed at this time

METAR text: UBBG 180430Z 31010KT 9999 SCT100 20/14 Q1016 R30/190065 NOSIG
Conditions at: UBBG (GYANDZHA , AZ) observed 0430 UTC 18 September 2021
Temperature: 20.0°C (68°F)
Dewpoint: 14.0°C (57°F) [RH = 68%]
Pressure (altimeter): 30.00 inches Hg (1016.0 mb)
Winds: from the NW (310 degrees) at 12 MPH (10 knots; 5.1 m/s)
Visibility: 6 or more miles (10+ km)
Ceiling: at least 12,000 feet AGL
Clouds: scattered clouds at 10000 feet AGL
Weather: no significant weather observed at this time

METAR text: UBBG 180400Z 29008KT 9999 SCT100 19/14 Q1016 R30/190065 NOSIG
Conditions at: UBBG (GYANDZHA , AZ) observed 0400 UTC 18 September 2021
Temperature: 19.0°C (66°F)
Dewpoint: 14.0°C (57°F) [RH = 73%]
Pressure (altimeter): 30.00 inches Hg (1016.0 mb)
Winds: from the WNW (290 degrees) at 9 MPH (8 knots; 4.1 m/s)
Visibility: 6 or more miles (10+ km)
Ceiling: at least 12,000 feet AGL
Clouds: scattered clouds at 10000 feet AGL
Weather: no significant weather observed at this time

METAR text: UBBG 180330Z 28008KT 9999 SCT100 18/14 Q1015 R30/190065 NOSIG
Conditions at: UBBG (GYANDZHA , AZ) observed 0330 UTC 18 September 2021
Temperature: 18.0°C (64°F)
Dewpoint: 14.0°C (57°F) [RH = 77%]
Pressure (altimeter): 29.97 inches Hg (1015.0 mb)
Winds: from the W (280 degrees) at 9 MPH (8 knots; 4.1 m/s)
Visibility: 6 or more miles (10+ km)
Ceiling: at least 12,000 feet AGL
Clouds: scattered clouds at 10000 feet AGL
Weather: no significant weather observed at this time

METAR text: UBBG 180300Z 29006KT 9999 BKN083 18/14 Q1015 R30/190065 NOSIG
Conditions at: UBBG (GYANDZHA , AZ) observed 0300 UTC 18 September 2021
Temperature: 18.0°C (64°F)
Dewpoint: 14.0°C (57°F) [RH = 77%]
Pressure (altimeter): 29.97 inches Hg (1015.0 mb)
Winds: from the WNW (290 degrees) at 7 MPH (6 knots; 3.1 m/s)
Visibility: 6 or more miles (10+ km)
Ceiling: 8300 feet AGL
Clouds: broken clouds at 8300 feet AGL
Weather: no significant weather observed at this time

METAR text: UBBG 180230Z 28008KT 9999 FEW040CB BKN083 18/14 Q1015 R30/190065 NOSIG
Conditions at: UBBG (GYANDZHA , AZ) observed 0230 UTC 18 September 2021
Temperature: 18.0°C (64°F)
Dewpoint: 14.0°C (57°F) [RH = 77%]
Pressure (altimeter): 29.97 inches Hg (1015.0 mb)
Winds: from the W (280 degrees) at 9 MPH (8 knots; 4.1 m/s)
Visibility: 6 or more miles (10+ km)
Ceiling: 8300 feet AGL
Clouds: few clouds at 4000 feet AGL
broken clouds at 8300 feet AGL
Weather: no significant weather observed at this time

METAR text: UBBG 180200Z 27004KT 9999 FEW040CB BKN083 18/14 Q1015 R30/190065 NOSIG
Conditions at: UBBG (GYANDZHA , AZ) observed 0200 UTC 18 September 2021
Temperature: 18.0°C (64°F)
Dewpoint: 14.0°C (57°F) [RH = 77%]
Pressure (altimeter): 29.97 inches Hg (1015.0 mb)
Winds: from the W (270 degrees) at 5 MPH (4 knots; 2.1 m/s)
Visibility: 6 or more miles (10+ km)
Ceiling: 8300 feet AGL
Clouds: few clouds at 4000 feet AGL
broken clouds at 8300 feet AGL
Weather: no significant weather observed at this time

METAR text: UBBG 180130Z 30006KT 9999 FEW040CB BKN083 19/15 Q1015 R30/190065 NOSIG
Conditions at: UBBG (GYANDZHA , AZ) observed 0130 UTC 18 September 2021
Temperature: 19.0°C (66°F)
Dewpoint: 15.0°C (59°F) [RH = 78%]
Pressure (altimeter): 29.97 inches Hg (1015.0 mb)
Winds: from the WNW (300 degrees) at 7 MPH (6 knots; 3.1 m/s)
Visibility: 6 or more miles (10+ km)
Ceiling: 8300 feet AGL
Clouds: few clouds at 4000 feet AGL
broken clouds at 8300 feet AGL
Weather: no significant weather observed at this time

METAR text: UBBG 180100Z VRB02KT 9999 FEW040CB BKN083 19/15 Q1015 R30/190065 NOSIG
Conditions at: UBBG (GYANDZHA , AZ) observed 0100 UTC 18 September 2021
Temperature: 19.0°C (66°F)
Dewpoint: 15.0°C (59°F) [RH = 78%]
Pressure (altimeter): 29.97 inches Hg (1015.0 mb)
Winds: variable direction winds at 2 MPH (2 knots; 1.0 m/s)
Visibility: 6 or more miles (10+ km)
Ceiling: 8300 feet AGL
Clouds: few clouds at 4000 feet AGL
broken clouds at 8300 feet AGL
Weather: no significant weather observed at this time

METAR text: UBBG 180030Z 00000KT 9999 FEW040CB BKN083 18/15 Q1015 R30/190065 NOSIG
Conditions at: UBBG (GYANDZHA , AZ) observed 0030 UTC 18 September 2021
Temperature: 18.0°C (64°F)
Dewpoint: 15.0°C (59°F) [RH = 83%]
Pressure (altimeter): 29.97 inches Hg (1015.0 mb)
Winds: calm
Visibility: 6 or more miles (10+ km)
Ceiling: 8300 feet AGL
Clouds: few clouds at 4000 feet AGL
broken clouds at 8300 feet AGL
Weather: no significant weather observed at this time

METAR text: UBBG 180000Z 23004KT 200V300 9999 FEW040CB BKN083 18/15 Q1015 R30/190065 NOSIG
Conditions at: UBBG (GYANDZHA , AZ) observed 0000 UTC 18 September 2021
Temperature: 18.0°C (64°F)
Dewpoint: 15.0°C (59°F) [RH = 83%]
Pressure (altimeter): 29.97 inches Hg (1015.0 mb)
Winds: from the SW (230 degrees) at 5 MPH (4 knots; 2.1 m/s)
Visibility: 6 or more miles (10+ km)
Ceiling: 8300 feet AGL
Clouds: few clouds at 4000 feet AGL
broken clouds at 8300 feet AGL
Weather: no significant weather observed at this time

METAR text: UBBG 172330Z 19002KT 9999 FEW040CB BKN083 18/16 Q1015 R30/190065 NOSIG
Conditions at: UBBG (GYANDZHA , AZ) observed 2330 UTC 17 September 2021
Temperature: 18.0°C (64°F)
Dewpoint: 16.0°C (61°F) [RH = 88%]
Pressure (altimeter): 29.97 inches Hg (1015.0 mb)
Winds: from the S (190 degrees) at 2 MPH (2 knots; 1.0 m/s)
Visibility: 6 or more miles (10+ km)
Ceiling: 8300 feet AGL
Clouds: few clouds at 4000 feet AGL
broken clouds at 8300 feet AGL
Weather: no significant weather observed at this time

METAR text: UBBG 172300Z 28004KT 9999 FEW040CB BKN083 18/16 Q1015 R30/190065 NOSIG
Conditions at: UBBG (GYANDZHA , AZ) observed 2300 UTC 17 September 2021
Temperature: 18.0°C (64°F)
Dewpoint: 16.0°C (61°F) [RH = 88%]
Pressure (altimeter): 29.97 inches Hg (1015.0 mb)
Winds: from the W (280 degrees) at 5 MPH (4 knots; 2.1 m/s)
Visibility: 6 or more miles (10+ km)
Ceiling: 8300 feet AGL
Clouds: few clouds at 4000 feet AGL
broken clouds at 8300 feet AGL
Weather: no significant weather observed at this time

METAR text: UBBG 172230Z 30006KT 9999 FEW040CB BKN083 18/16 Q1015 R30/190065 NOSIG
Conditions at: UBBG (GYANDZHA , AZ) observed 2230 UTC 17 September 2021
Temperature: 18.0°C (64°F)
Dewpoint: 16.0°C (61°F) [RH = 88%]
Pressure (altimeter): 29.97 inches Hg (1015.0 mb)
Winds: from the WNW (300 degrees) at 7 MPH (6 knots; 3.1 m/s)
Visibility: 6 or more miles (10+ km)
Ceiling: 8300 feet AGL
Clouds: few clouds at 4000 feet AGL
broken clouds at 8300 feet AGL
Weather: no significant weather observed at this time

METAR text: UBBG 172200Z 29004KT 9999 FEW040CB BKN083 18/16 Q1015 R30/190065 NOSIG
Conditions at: UBBG (GYANDZHA , AZ) observed 2200 UTC 17 September 2021
Temperature: 18.0°C (64°F)
Dewpoint: 16.0°C (61°F) [RH = 88%]
Pressure (altimeter): 29.97 inches Hg (1015.0 mb)
Winds: from the WNW (290 degrees) at 5 MPH (4 knots; 2.1 m/s)
Visibility: 6 or more miles (10+ km)
Ceiling: 8300 feet AGL
Clouds: few clouds at 4000 feet AGL
broken clouds at 8300 feet AGL
Weather: no significant weather observed at this time

METAR text: UBBG 172130Z 35004KT 9999 FEW040CB BKN083 18/16 Q1015 R30/190065 NOSIG
Conditions at: UBBG (GYANDZHA , AZ) observed 2130 UTC 17 September 2021
Temperature: 18.0°C (64°F)
Dewpoint: 16.0°C (61°F) [RH = 88%]
Pressure (altimeter): 29.97 inches Hg (1015.0 mb)
Winds: from the N (350 degrees) at 5 MPH (4 knots; 2.1 m/s)
Visibility: 6 or more miles (10+ km)
Ceiling: 8300 feet AGL
Clouds: few clouds at 4000 feet AGL
broken clouds at 8300 feet AGL
Weather: no significant weather observed at this time

METAR text: UBBG 172100Z 03004KT 350V160 9999 FEW040CB BKN083 18/16 Q1015 R30/190065 NOSIG
Conditions at: UBBG (GYANDZHA , AZ) observed 2100 UTC 17 September 2021
Temperature: 18.0°C (64°F)
Dewpoint: 16.0°C (61°F) [RH = 88%]
Pressure (altimeter): 29.97 inches Hg (1015.0 mb)
Winds: from the NNE (30 degrees) at 5 MPH (4 knots; 2.1 m/s)
Visibility: 6 or more miles (10+ km)
Ceiling: 8300 feet AGL
Clouds: few clouds at 4000 feet AGL
broken clouds at 8300 feet AGL
Weather: no significant weather observed at this time

METAR text: UBBG 172030Z 16006KT 9999 FEW040CB BKN083 19/16 Q1015 R30/190065 NOSIG
Conditions at: UBBG (GYANDZHA , AZ) observed 2030 UTC 17 September 2021
Temperature: 19.0°C (66°F)
Dewpoint: 16.0°C (61°F) [RH = 83%]
Pressure (altimeter): 29.97 inches Hg (1015.0 mb)
Winds: from the SSE (160 degrees) at 7 MPH (6 knots; 3.1 m/s)
Visibility: 6 or more miles (10+ km)
Ceiling: 8300 feet AGL
Clouds: few clouds at 4000 feet AGL
broken clouds at 8300 feet AGL
Weather: no significant weather observed at this time

METAR text: UBBG 172000Z 24004KT 210V280 9999 FEW040CB BKN083 19/16 Q1016 R30/190065 NOSIG
Conditions at: UBBG (GYANDZHA , AZ) observed 2000 UTC 17 September 2021
Temperature: 19.0°C (66°F)
Dewpoint: 16.0°C (61°F) [RH = 83%]
Pressure (altimeter): 30.00 inches Hg (1016.0 mb)
Winds: from the WSW (240 degrees) at 5 MPH (4 knots; 2.1 m/s)
Visibility: 6 or more miles (10+ km)
Ceiling: 8300 feet AGL
Clouds: few clouds at 4000 feet AGL
broken clouds at 8300 feet AGL
Weather: no significant weather observed at this time

METAR text: UBBG 171930Z 30008KT 9999 FEW040CB BKN083 19/16 Q1016 R30/190065 NOSIG
Conditions at: UBBG (GYANDZHA , AZ) observed 1930 UTC 17 September 2021
Temperature: 19.0°C (66°F)
Dewpoint: 16.0°C (61°F) [RH = 83%]
Pressure (altimeter): 30.00 inches Hg (1016.0 mb)
Winds: from the WNW (300 degrees) at 9 MPH (8 knots; 4.1 m/s)
Visibility: 6 or more miles (10+ km)
Ceiling: 8300 feet AGL
Clouds: few clouds at 4000 feet AGL
broken clouds at 8300 feet AGL
Weather: no significant weather observed at this time

METAR text: UBBG 171900Z 29010KT 9999 FEW040CB BKN083 19/16 Q1016 R30/190065 NOSIG
Conditions at: UBBG (GYANDZHA , AZ) observed 1900 UTC 17 September 2021
Temperature: 19.0°C (66°F)
Dewpoint: 16.0°C (61°F) [RH = 83%]
Pressure (altimeter): 30.00 inches Hg (1016.0 mb)
Winds: from the WNW (290 degrees) at 12 MPH (10 knots; 5.1 m/s)
Visibility: 6 or more miles (10+ km)
Ceiling: 8300 feet AGL
Clouds: few clouds at 4000 feet AGL
broken clouds at 8300 feet AGL
Weather: no significant weather observed at this time

METAR text: UBBG 171830Z 32008KT 9999 FEW040CB BKN083 19/17 Q1016 R30/190065 NOSIG
Conditions at: UBBG (GYANDZHA , AZ) observed 1830 UTC 17 September 2021
Temperature: 19.0°C (66°F)
Dewpoint: 17.0°C (63°F) [RH = 88%]
Pressure (altimeter): 30.00 inches Hg (1016.0 mb)
Winds: from the NW (320 degrees) at 9 MPH (8 knots; 4.1 m/s)
Visibility: 6 or more miles (10+ km)
Ceiling: 8300 feet AGL
Clouds: few clouds at 4000 feet AGL
broken clouds at 8300 feet AGL
Weather: no significant weather observed at this time

METAR text: UBBG 171800Z 32006KT 9999 FEW040CB BKN083 20/17 Q1015 R30/190065 NOSIG
Conditions at: UBBG (GYANDZHA , AZ) observed 1800 UTC 17 September 2021
Temperature: 20.0°C (68°F)
Dewpoint: 17.0°C (63°F) [RH = 83%]
Pressure (altimeter): 29.97 inches Hg (1015.0 mb)
Winds: from the NW (320 degrees) at 7 MPH (6 knots; 3.1 m/s)
Visibility: 6 or more miles (10+ km)
Ceiling: 8300 feet AGL
Clouds: few clouds at 4000 feet AGL
broken clouds at 8300 feet AGL
Weather: no significant weather observed at this time

METAR text: UBBG 171730Z 29010KT 9999 FEW040CB BKN083 21/16 Q1016 R30/190065 NOSIG
Conditions at: UBBG (GYANDZHA , AZ) observed 1730 UTC 17 September 2021
Temperature: 21.0°C (70°F)
Dewpoint: 16.0°C (61°F) [RH = 73%]
Pressure (altimeter): 30.00 inches Hg (1016.0 mb)
Winds: from the WNW (290 degrees) at 12 MPH (10 knots; 5.1 m/s)
Visibility: 6 or more miles (10+ km)
Ceiling: 8300 feet AGL
Clouds: few clouds at 4000 feet AGL
broken clouds at 8300 feet AGL
Weather: no significant weather observed at this time

METAR text: UBBG 171700Z 25008KT 230V290 9999 FEW040CB BKN083 21/14 Q1015 R30/190065 NOSIG
Conditions at: UBBG (GYANDZHA , AZ) observed 1700 UTC 17 September 2021
Temperature: 21.0°C (70°F)
Dewpoint: 14.0°C (57°F) [RH = 64%]
Pressure (altimeter): 29.97 inches Hg (1015.0 mb)
Winds: from the WSW (250 degrees) at 9 MPH (8 knots; 4.1 m/s)
Visibility: 6 or more miles (10+ km)
Ceiling: 8300 feet AGL
Clouds: few clouds at 4000 feet AGL
broken clouds at 8300 feet AGL
Weather: no significant weather observed at this time

METAR text: UBBG 171630Z 21010KT 9999 FEW040CB BKN083 20/15 Q1014 R30/190065 NOSIG
Conditions at: UBBG (GYANDZHA , AZ) observed 1630 UTC 17 September 2021
Temperature: 20.0°C (68°F)
Dewpoint: 15.0°C (59°F) [RH = 73%]
Pressure (altimeter): 29.94 inches Hg (1014.0 mb)
Winds: from the SSW (210 degrees) at 12 MPH (10 knots; 5.1 m/s)
Visibility: 6 or more miles (10+ km)
Ceiling: 8300 feet AGL
Clouds: few clouds at 4000 feet AGL
broken clouds at 8300 feet AGL
Weather: no significant weather observed at this time

METAR text: UBBG 171600Z 21012KT 9999 -SHRA SCT040CB BKN083 20/15 Q1013 R30/190065 NOSIG
Conditions at: UBBG (GYANDZHA , AZ) observed 1600 UTC 17 September 2021
Temperature: 20.0°C (68°F)
Dewpoint: 15.0°C (59°F) [RH = 73%]
Pressure (altimeter): 29.91 inches Hg (1013.0 mb)
Winds: from the SSW (210 degrees) at 14 MPH (12 knots; 6.2 m/s)
Visibility: 6 or more miles (10+ km)
Ceiling: 8300 feet AGL
Clouds: scattered clouds at 4000 feet AGL
broken clouds at 8300 feet AGL
Weather: -SHRA  (light rain showers)

METAR text: UBBG 171530Z 22012KT 9999 -SHRA FEW040CB BKN083 20/16 Q1013 R30/190065 NOSIG
Conditions at: UBBG (GYANDZHA , AZ) observed 1530 UTC 17 September 2021
Temperature: 20.0°C (68°F)
Dewpoint: 16.0°C (61°F) [RH = 78%]
Pressure (altimeter): 29.91 inches Hg (1013.0 mb)
Winds: from the SW (220 degrees) at 14 MPH (12 knots; 6.2 m/s)
Visibility: 6 or more miles (10+ km)
Ceiling: 8300 feet AGL
Clouds: few clouds at 4000 feet AGL
broken clouds at 8300 feet AGL
Weather: -SHRA  (light rain showers)

METAR text: UBBG 171500Z 16006KT 130V200 8000 -TSRA SCT040CB BKN083 20/17 Q1012 R30/190065 NOSIG
Conditions at: UBBG (GYANDZHA , AZ) observed 1500 UTC 17 September 2021
Temperature: 20.0°C (68°F)
Dewpoint: 17.0°C (63°F) [RH = 83%]
Pressure (altimeter): 29.88 inches Hg (1012.0 mb)
Winds: from the SSE (160 degrees) at 7 MPH (6 knots; 3.1 m/s)
Visibility: 5 miles ( 8 km)
Ceiling: 8300 feet AGL
Clouds: scattered clouds at 4000 feet AGL
broken clouds at 8300 feet AGL
Weather: -TSRA  (light rain associated with thunderstorm(s))

METAR text: UBBG 171430Z 28014KT 9999 -SHRA SCT040CB BKN083 22/16 Q1012 R30/190065 NOSIG
Conditions at: UBBG (GYANDZHA , AZ) observed 1430 UTC 17 September 2021
Temperature: 22.0°C (72°F)
Dewpoint: 16.0°C (61°F) [RH = 69%]
Pressure (altimeter): 29.88 inches Hg (1012.0 mb)
Winds: from the W (280 degrees) at 16 MPH (14 knots; 7.2 m/s)
Visibility: 6 or more miles (10+ km)
Ceiling: 8300 feet AGL
Clouds: scattered clouds at 4000 feet AGL
broken clouds at 8300 feet AGL
Weather: -SHRA  (light rain showers)

METAR text: UBBG 171400Z 29014KT 9999 FEW040CB BKN083 23/17 Q1011 R30/190065 NOSIG
Conditions at: UBBG (GYANDZHA , AZ) observed 1400 UTC 17 September 2021
Temperature: 23.0°C (73°F)
Dewpoint: 17.0°C (63°F) [RH = 69%]
Pressure (altimeter): 29.85 inches Hg (1011.0 mb)
Winds: from the WNW (290 degrees) at 16 MPH (14 knots; 7.2 m/s)
Visibility: 6 or more miles (10+ km)
Ceiling: 8300 feet AGL
Clouds: few clouds at 4000 feet AGL
broken clouds at 8300 feet AGL
Weather: no significant weather observed at this time

METAR text: UBBG 171330Z 29018G30KT 9999 FEW040CB BKN083 24/16 Q1011 R30/190065 NOSIG
Conditions at: UBBG (GYANDZHA , AZ) observed 1330 UTC 17 September 2021
Temperature: 24.0°C (75°F)
Dewpoint: 16.0°C (61°F) [RH = 61%]
Pressure (altimeter): 29.85 inches Hg (1011.0 mb)
Winds: from the WNW (290 degrees) at 21 MPH (18 knots; 9.3 m/s)
gusting to 34 MPH (30 knots; 15.4 m/s)
Visibility: 6 or more miles (10+ km)
Ceiling: 8300 feet AGL
Clouds: few clouds at 4000 feet AGL
broken clouds at 8300 feet AGL
Weather: no significant weather observed at this time

METAR text: UBBG 171300Z 15010KT 110V240 9999 -TSRA SCT040CB BKN083 26/15 Q1010 R30/190065 NOSIG
Conditions at: UBBG (GYANDZHA , AZ) observed 1300 UTC 17 September 2021
Temperature: 26.0°C (79°F)
Dewpoint: 15.0°C (59°F) [RH = 51%]
Pressure (altimeter): 29.82 inches Hg (1010.0 mb)
Winds: from the SSE (150 degrees) at 12 MPH (10 knots; 5.1 m/s)
Visibility: 6 or more miles (10+ km)
Ceiling: 8300 feet AGL
Clouds: scattered clouds at 4000 feet AGL
broken clouds at 8300 feet AGL
Weather: -TSRA  (light rain associated with thunderstorm(s))

METAR text: UBBG 171230Z 04008G18KT 320V130 9999 -TSRA SCT040CB BKN083 26/13 Q1009 R30/190065 NOSIG
Conditions at: UBBG (GYANDZHA , AZ) observed 1230 UTC 17 September 2021
Temperature: 26.0°C (79°F)
Dewpoint: 13.0°C (55°F) [RH = 45%]
Pressure (altimeter): 29.79 inches Hg (1009.0 mb)
Winds: from the NE (40 degrees) at 9 MPH (8 knots; 4.1 m/s)
gusting to 21 MPH (18 knots; 9.3 m/s)
Visibility: 6 or more miles (10+ km)
Ceiling: 8300 feet AGL
Clouds: scattered clouds at 4000 feet AGL
broken clouds at 8300 feet AGL
Weather: -TSRA  (light rain associated with thunderstorm(s))

METAR text: UBBG 171200Z 30012KT 270V330 9999 FEW040CB BKN083 25/16 Q1010 R30/CLRD// NOSIG
Conditions at: UBBG (GYANDZHA , AZ) observed 1200 UTC 17 September 2021
Temperature: 25.0°C (77°F)
Dewpoint: 16.0°C (61°F) [RH = 57%]
Pressure (altimeter): 29.82 inches Hg (1010.0 mb)
Winds: from the WNW (300 degrees) at 14 MPH (12 knots; 6.2 m/s)
Visibility: 6 or more miles (10+ km)
Ceiling: 8300 feet AGL
Clouds: few clouds at 4000 feet AGL
broken clouds at 8300 feet AGL
Weather: no significant weather observed at this time

METAR text: UBBG 171130Z 26022G34KT 9999 FEW040CB BKN083 25/16 Q1009 R30/CLRD// NOSIG
Conditions at: UBBG (GYANDZHA , AZ) observed 1130 UTC 17 September 2021
Temperature: 25.0°C (77°F)
Dewpoint: 16.0°C (61°F) [RH = 57%]
Pressure (altimeter): 29.79 inches Hg (1009.0 mb)
Winds: from the W (260 degrees) at 25 MPH (22 knots; 11.3 m/s)
gusting to 39 MPH (34 knots; 17.5 m/s)
Visibility: 6 or more miles (10+ km)
Ceiling: 8300 feet AGL
Clouds: few clouds at 4000 feet AGL
broken clouds at 8300 feet AGL
Weather: no significant weather observed at this time

METAR text: UBBG 171100Z 25016KT 200V340 9999 SCT040 BKN083 28/15 Q1008 R30/CLRD// NOSIG
Conditions at: UBBG (GYANDZHA , AZ) observed 1100 UTC 17 September 2021
Temperature: 28.0°C (82°F)
Dewpoint: 15.0°C (59°F) [RH = 45%]
Pressure (altimeter): 29.76 inches Hg (1008.0 mb)
Winds: from the WSW (250 degrees) at 18 MPH (16 knots; 8.2 m/s)
Visibility: 6 or more miles (10+ km)
Ceiling: 8300 feet AGL
Clouds: scattered clouds at 4000 feet AGL
broken clouds at 8300 feet AGL
Weather: no significant weather observed at this time

METAR text: UBBG 171030Z 34012G22KT 9999 SCT040 BKN083 30/15 Q1008 R30/CLRD// NOSIG
Conditions at: UBBG (GYANDZHA , AZ) observed 1030 UTC 17 September 2021
Temperature: 30.0°C (86°F)
Dewpoint: 15.0°C (59°F) [RH = 40%]
Pressure (altimeter): 29.76 inches Hg (1008.0 mb)
Winds: from the NNW (340 degrees) at 14 MPH (12 knots; 6.2 m/s)
gusting to 25 MPH (22 knots; 11.3 m/s)
Visibility: 6 or more miles (10+ km)
Ceiling: 8300 feet AGL
Clouds: scattered clouds at 4000 feet AGL
broken clouds at 8300 feet AGL
Weather: no significant weather observed at this time

METAR text: UBBG 171000Z 04004KT 9999 SCT040 BKN083 27/16 Q1009 R12/CLRD// NOSIG
Conditions at: UBBG (GYANDZHA , AZ) observed 1000 UTC 17 September 2021
Temperature: 27.0°C (81°F)
Dewpoint: 16.0°C (61°F) [RH = 51%]
Pressure (altimeter): 29.79 inches Hg (1009.0 mb)
Winds: from the NE (40 degrees) at 5 MPH (4 knots; 2.1 m/s)
Visibility: 6 or more miles (10+ km)
Ceiling: 8300 feet AGL
Clouds: scattered clouds at 4000 feet AGL
broken clouds at 8300 feet AGL
Weather: no significant weather observed at this time

METAR text: UBBG 170930Z 08014KT 9999 SCT040 BKN083 26/16 Q1010 R12/CLRD// NOSIG
Conditions at: UBBG (GYANDZHA , AZ) observed 0930 UTC 17 September 2021
Temperature: 26.0°C (79°F)
Dewpoint: 16.0°C (61°F) [RH = 54%]
Pressure (altimeter): 29.82 inches Hg (1010.0 mb)
Winds: from the E (80 degrees) at 16 MPH (14 knots; 7.2 m/s)
Visibility: 6 or more miles (10+ km)
Ceiling: 8300 feet AGL
Clouds: scattered clouds at 4000 feet AGL
broken clouds at 8300 feet AGL
Weather: no significant weather observed at this time

METAR text: UBBG 170900Z 06010KT 020V100 9999 SCT050 BKN083 26/16 Q1011 R12/CLRD// NOSIG
Conditions at: UBBG (GYANDZHA , AZ) observed 0900 UTC 17 September 2021
Temperature: 26.0°C (79°F)
Dewpoint: 16.0°C (61°F) [RH = 54%]
Pressure (altimeter): 29.85 inches Hg (1011.0 mb)
Winds: from the ENE (60 degrees) at 12 MPH (10 knots; 5.1 m/s)
Visibility: 6 or more miles (10+ km)
Ceiling: 8300 feet AGL
Clouds: scattered clouds at 5000 feet AGL
broken clouds at 8300 feet AGL
Weather: no significant weather observed at this time

METAR text: UBBG 170830Z 06010KT 020V090 9999 SCT050 BKN083 25/16 Q1011 R12/CLRD// NOSIG
Conditions at: UBBG (GYANDZHA , AZ) observed 0830 UTC 17 September 2021
Temperature: 25.0°C (77°F)
Dewpoint: 16.0°C (61°F) [RH = 57%]
Pressure (altimeter): 29.85 inches Hg (1011.0 mb)
Winds: from the ENE (60 degrees) at 12 MPH (10 knots; 5.1 m/s)
Visibility: 6 or more miles (10+ km)
Ceiling: 8300 feet AGL
Clouds: scattered clouds at 5000 feet AGL
broken clouds at 8300 feet AGL
Weather: no significant weather observed at this time

METAR text: UBBG 170800Z 09008KT 060V130 9999 SCT050 BKN083 25/16 Q1012 R12/CLRD// NOSIG
Conditions at: UBBG (GYANDZHA , AZ) observed 0800 UTC 17 September 2021
Temperature: 25.0°C (77°F)
Dewpoint: 16.0°C (61°F) [RH = 57%]
Pressure (altimeter): 29.88 inches Hg (1012.0 mb)
Winds: from the E (90 degrees) at 9 MPH (8 knots; 4.1 m/s)
Visibility: 6 or more miles (10+ km)
Ceiling: 8300 feet AGL
Clouds: scattered clouds at 5000 feet AGL
broken clouds at 8300 feet AGL
Weather: no significant weather observed at this time

METAR text: UBBG 170730Z 09008KT 050V120 9999 SCT050 BKN083 24/15 Q1012 R12/CLRD// NOSIG
Conditions at: UBBG (GYANDZHA , AZ) observed 0730 UTC 17 September 2021
Temperature: 24.0°C (75°F)
Dewpoint: 15.0°C (59°F) [RH = 57%]
Pressure (altimeter): 29.88 inches Hg (1012.0 mb)
Winds: from the E (90 degrees) at 9 MPH (8 knots; 4.1 m/s)
Visibility: 6 or more miles (10+ km)
Ceiling: 8300 feet AGL
Clouds: scattered clouds at 5000 feet AGL
broken clouds at 8300 feet AGL
Weather: no significant weather observed at this time

METAR text: UBBG 170700Z 10008KT 060V130 9999 BKN050 24/15 Q1013 R12/CLRD// NOSIG
Conditions at: UBBG (GYANDZHA , AZ) observed 0700 UTC 17 September 2021
Temperature: 24.0°C (75°F)
Dewpoint: 15.0°C (59°F) [RH = 57%]
Pressure (altimeter): 29.91 inches Hg (1013.0 mb)
Winds: from the E (100 degrees) at 9 MPH (8 knots; 4.1 m/s)
Visibility: 6 or more miles (10+ km)
Ceiling: 5000 feet AGL
Clouds: broken clouds at 5000 feet AGL
Weather: no significant weather observed at this time

METAR text: UBBG 170630Z 07010KT 9999 BKN066 23/15 Q1013 R30/CLRD// NOSIG
Conditions at: UBBG (GYANDZHA , AZ) observed 0630 UTC 17 September 2021
Temperature: 23.0°C (73°F)
Dewpoint: 15.0°C (59°F) [RH = 61%]
Pressure (altimeter): 29.91 inches Hg (1013.0 mb)
Winds: from the ENE (70 degrees) at 12 MPH (10 knots; 5.1 m/s)
Visibility: 6 or more miles (10+ km)
Ceiling: 6600 feet AGL
Clouds: broken clouds at 6600 feet AGL
Weather: no significant weather observed at this time

METAR text: UBBG 170600Z 35008KT 9999 BKN066 24/14 Q1012 R30/CLRD// NOSIG
Conditions at: UBBG (GYANDZHA , AZ) observed 0600 UTC 17 September 2021
Temperature: 24.0°C (75°F)
Dewpoint: 14.0°C (57°F) [RH = 54%]
Pressure (altimeter): 29.88 inches Hg (1012.0 mb)
Winds: from the N (350 degrees) at 9 MPH (8 knots; 4.1 m/s)
Visibility: 6 or more miles (10+ km)
Ceiling: 6600 feet AGL
Clouds: broken clouds at 6600 feet AGL
Weather: no significant weather observed at this time

METAR text: UBBG 170530Z VRB02KT 9999 BKN066 24/14 Q1012 R30/CLRD// NOSIG
Conditions at: UBBG (GYANDZHA , AZ) observed 0530 UTC 17 September 2021
Temperature: 24.0°C (75°F)
Dewpoint: 14.0°C (57°F) [RH = 54%]
Pressure (altimeter): 29.88 inches Hg (1012.0 mb)
Winds: variable direction winds at 2 MPH (2 knots; 1.0 m/s)
Visibility: 6 or more miles (10+ km)
Ceiling: 6600 feet AGL
Clouds: broken clouds at 6600 feet AGL
Weather: no significant weather observed at this time

METAR text: UBBG 170500Z 28010KT 9999 BKN066 23/14 Q1012 R30/CLRD// NOSIG
Conditions at: UBBG (GYANDZHA , AZ) observed 0500 UTC 17 September 2021
Temperature: 23.0°C (73°F)
Dewpoint: 14.0°C (57°F) [RH = 57%]
Pressure (altimeter): 29.88 inches Hg (1012.0 mb)
Winds: from the W (280 degrees) at 12 MPH (10 knots; 5.1 m/s)
Visibility: 6 or more miles (10+ km)
Ceiling: 6600 feet AGL
Clouds: broken clouds at 6600 feet AGL
Weather: no significant weather observed at this time

METAR text: UBBG 170430Z 27010KT 9999 BKN083 23/14 Q1012 R30/CLRD// NOSIG
Conditions at: UBBG (GYANDZHA , AZ) observed 0430 UTC 17 September 2021
Temperature: 23.0°C (73°F)
Dewpoint: 14.0°C (57°F) [RH = 57%]
Pressure (altimeter): 29.88 inches Hg (1012.0 mb)
Winds: from the W (270 degrees) at 12 MPH (10 knots; 5.1 m/s)
Visibility: 6 or more miles (10+ km)
Ceiling: 8300 feet AGL
Clouds: broken clouds at 8300 feet AGL
Weather: no significant weather observed at this time

METAR text: UBBG 170400Z 28010KT 9999 BKN083 22/14 Q1012 R30/CLRD// NOSIG
Conditions at: UBBG (GYANDZHA , AZ) observed 0400 UTC 17 September 2021
Temperature: 22.0°C (72°F)
Dewpoint: 14.0°C (57°F) [RH = 60%]
Pressure (altimeter): 29.88 inches Hg (1012.0 mb)
Winds: from the W (280 degrees) at 12 MPH (10 knots; 5.1 m/s)
Visibility: 6 or more miles (10+ km)
Ceiling: 8300 feet AGL
Clouds: broken clouds at 8300 feet AGL
Weather: no significant weather observed at this time

METAR text: UBBG 170330Z 26006KT 9999 SCT083 22/14 Q1011 R30/CLRD// NOSIG
Conditions at: UBBG (GYANDZHA , AZ) observed 0330 UTC 17 September 2021
Temperature: 22.0°C (72°F)
Dewpoint: 14.0°C (57°F) [RH = 60%]
Pressure (altimeter): 29.85 inches Hg (1011.0 mb)
Winds: from the W (260 degrees) at 7 MPH (6 knots; 3.1 m/s)
Visibility: 6 or more miles (10+ km)
Ceiling: at least 12,000 feet AGL
Clouds: scattered clouds at 8300 feet AGL
Weather: no significant weather observed at this time

METAR text: UBBG 170300Z 29012KT 9999 FEW100 22/14 Q1011 R30/CLRD// NOSIG
Conditions at: UBBG (GYANDZHA , AZ) observed 0300 UTC 17 September 2021
Temperature: 22.0°C (72°F)
Dewpoint: 14.0°C (57°F) [RH = 60%]
Pressure (altimeter): 29.85 inches Hg (1011.0 mb)
Winds: from the WNW (290 degrees) at 14 MPH (12 knots; 6.2 m/s)
Visibility: 6 or more miles (10+ km)
Ceiling: at least 12,000 feet AGL
Clouds: few clouds at 10000 feet AGL
Weather: no significant weather observed at this time

METAR text: UBBG 170230Z 29008KT 9999 FEW100 22/14 Q1011 R30/CLRD// NOSIG
Conditions at: UBBG (GYANDZHA , AZ) observed 0230 UTC 17 September 2021
Temperature: 22.0°C (72°F)
Dewpoint: 14.0°C (57°F) [RH = 60%]
Pressure (altimeter): 29.85 inches Hg (1011.0 mb)
Winds: from the WNW (290 degrees) at 9 MPH (8 knots; 4.1 m/s)
Visibility: 6 or more miles (10+ km)
Ceiling: at least 12,000 feet AGL
Clouds: few clouds at 10000 feet AGL
Weather: no significant weather observed at this time

METAR text: UBBG 170200Z 29010KT 9999 FEW100 22/14 Q1010 R30/CLRD// NOSIG
Conditions at: UBBG (GYANDZHA , AZ) observed 0200 UTC 17 September 2021
Temperature: 22.0°C (72°F)
Dewpoint: 14.0°C (57°F) [RH = 60%]
Pressure (altimeter): 29.82 inches Hg (1010.0 mb)
Winds: from the WNW (290 degrees) at 12 MPH (10 knots; 5.1 m/s)
Visibility: 6 or more miles (10+ km)
Ceiling: at least 12,000 feet AGL
Clouds: few clouds at 10000 feet AGL
Weather: no significant weather observed at this time

METAR text: UBBG 170130Z 29008KT 9999 FEW100 22/14 Q1010 R30/CLRD// NOSIG
Conditions at: UBBG (GYANDZHA , AZ) observed 0130 UTC 17 September 2021
Temperature: 22.0°C (72°F)
Dewpoint: 14.0°C (57°F) [RH = 60%]
Pressure (altimeter): 29.82 inches Hg (1010.0 mb)
Winds: from the WNW (290 degrees) at 9 MPH (8 knots; 4.1 m/s)
Visibility: 6 or more miles (10+ km)
Ceiling: at least 12,000 feet AGL
Clouds: few clouds at 10000 feet AGL
Weather: no significant weather observed at this time

METAR text: UBBG 170100Z 29010KT 9999 FEW100 22/14 Q1010 R30/CLRD// NOSIG
Conditions at: UBBG (GYANDZHA , AZ) observed 0100 UTC 17 September 2021
Temperature: 22.0°C (72°F)
Dewpoint: 14.0°C (57°F) [RH = 60%]
Pressure (altimeter): 29.82 inches Hg (1010.0 mb)
Winds: from the WNW (290 degrees) at 12 MPH (10 knots; 5.1 m/s)
Visibility: 6 or more miles (10+ km)
Ceiling: at least 12,000 feet AGL
Clouds: few clouds at 10000 feet AGL
Weather: no significant weather observed at this time

METAR text: UBBG 170030Z 26006KT 9999 FEW100 22/14 Q1010 R30/CLRD// NOSIG
Conditions at: UBBG (GYANDZHA , AZ) observed 0030 UTC 17 September 2021
Temperature: 22.0°C (72°F)
Dewpoint: 14.0°C (57°F) [RH = 60%]
Pressure (altimeter): 29.82 inches Hg (1010.0 mb)
Winds: from the W (260 degrees) at 7 MPH (6 knots; 3.1 m/s)
Visibility: 6 or more miles (10+ km)
Ceiling: at least 12,000 feet AGL
Clouds: few clouds at 10000 feet AGL
Weather: no significant weather observed at this time

METAR text: UBBG 170000Z 29006KT 9999 FEW100 22/14 Q1009 R30/CLRD// NOSIG
Conditions at: UBBG (GYANDZHA , AZ) observed 0000 UTC 17 September 2021
Temperature: 22.0°C (72°F)
Dewpoint: 14.0°C (57°F) [RH = 60%]
Pressure (altimeter): 29.79 inches Hg (1009.0 mb)
Winds: from the WNW (290 degrees) at 7 MPH (6 knots; 3.1 m/s)
Visibility: 6 or more miles (10+ km)
Ceiling: at least 12,000 feet AGL
Clouds: few clouds at 10000 feet AGL
Weather: no significant weather observed at this time

METAR text: UBBG 162330Z 27008KT 9999 FEW100 22/14 Q1009 R30/CLRD// NOSIG
Conditions at: UBBG (GYANDZHA , AZ) observed 2330 UTC 16 September 2021
Temperature: 22.0°C (72°F)
Dewpoint: 14.0°C (57°F) [RH = 60%]
Pressure (altimeter): 29.79 inches Hg (1009.0 mb)
Winds: from the W (270 degrees) at 9 MPH (8 knots; 4.1 m/s)
Visibility: 6 or more miles (10+ km)
Ceiling: at least 12,000 feet AGL
Clouds: few clouds at 10000 feet AGL
Weather: no significant weather observed at this time

METAR text: UBBG 162300Z 27012KT 9999 FEW100 23/14 Q1009 R30/CLRD// NOSIG
Conditions at: UBBG (GYANDZHA , AZ) observed 2300 UTC 16 September 2021
Temperature: 23.0°C (73°F)
Dewpoint: 14.0°C (57°F) [RH = 57%]
Pressure (altimeter): 29.79 inches Hg (1009.0 mb)
Winds: from the W (270 degrees) at 14 MPH (12 knots; 6.2 m/s)
Visibility: 6 or more miles (10+ km)
Ceiling: at least 12,000 feet AGL
Clouds: few clouds at 10000 feet AGL
Weather: no significant weather observed at this time

METAR text: UBBG 162230Z 26010KT 9999 FEW100 22/14 Q1009 R30/CLRD// NOSIG
Conditions at: UBBG (GYANDZHA , AZ) observed 2230 UTC 16 September 2021
Temperature: 22.0°C (72°F)
Dewpoint: 14.0°C (57°F) [RH = 60%]
Pressure (altimeter): 29.79 inches Hg (1009.0 mb)
Winds: from the W (260 degrees) at 12 MPH (10 knots; 5.1 m/s)
Visibility: 6 or more miles (10+ km)
Ceiling: at least 12,000 feet AGL
Clouds: few clouds at 10000 feet AGL
Weather: no significant weather observed at this time

METAR text: UBBG 162200Z 26010KT 9999 FEW100 23/14 Q1009 R30/CLRD// NOSIG
Conditions at: UBBG (GYANDZHA , AZ) observed 2200 UTC 16 September 2021
Temperature: 23.0°C (73°F)
Dewpoint: 14.0°C (57°F) [RH = 57%]
Pressure (altimeter): 29.79 inches Hg (1009.0 mb)
Winds: from the W (260 degrees) at 12 MPH (10 knots; 5.1 m/s)
Visibility: 6 or more miles (10+ km)
Ceiling: at least 12,000 feet AGL
Clouds: few clouds at 10000 feet AGL
Weather: no significant weather observed at this time

METAR text: UBBG 162130Z 28010KT 9999 FEW100 23/14 Q1009 R30/CLRD// NOSIG
Conditions at: UBBG (GYANDZHA , AZ) observed 2130 UTC 16 September 2021
Temperature: 23.0°C (73°F)
Dewpoint: 14.0°C (57°F) [RH = 57%]
Pressure (altimeter): 29.79 inches Hg (1009.0 mb)
Winds: from the W (280 degrees) at 12 MPH (10 knots; 5.1 m/s)
Visibility: 6 or more miles (10+ km)
Ceiling: at least 12,000 feet AGL
Clouds: few clouds at 10000 feet AGL
Weather: no significant weather observed at this time

METAR text: UBBG 162100Z 27010KT 9999 FEW100 23/14 Q1009 R30/CLRD// NOSIG
Conditions at: UBBG (GYANDZHA , AZ) observed 2100 UTC 16 September 2021
Temperature: 23.0°C (73°F)
Dewpoint: 14.0°C (57°F) [RH = 57%]
Pressure (altimeter): 29.79 inches Hg (1009.0 mb)
Winds: from the W (270 degrees) at 12 MPH (10 knots; 5.1 m/s)
Visibility: 6 or more miles (10+ km)
Ceiling: at least 12,000 feet AGL
Clouds: few clouds at 10000 feet AGL
Weather: no significant weather observed at this time

METAR text: UBBG 162030Z 30012KT 9999 FEW100 24/15 Q1009 R30/CLRD// NOSIG
Conditions at: UBBG (GYANDZHA , AZ) observed 2030 UTC 16 September 2021
Temperature: 24.0°C (75°F)
Dewpoint: 15.0°C (59°F) [RH = 57%]
Pressure (altimeter): 29.79 inches Hg (1009.0 mb)
Winds: from the WNW (300 degrees) at 14 MPH (12 knots; 6.2 m/s)
Visibility: 6 or more miles (10+ km)
Ceiling: at least 12,000 feet AGL
Clouds: few clouds at 10000 feet AGL
Weather: no significant weather observed at this time

METAR text: UBBG 162000Z 30010KT 9999 FEW100 24/14 Q1009 R30/CLRD// NOSIG
Conditions at: UBBG (GYANDZHA , AZ) observed 2000 UTC 16 September 2021
Temperature: 24.0°C (75°F)
Dewpoint: 14.0°C (57°F) [RH = 54%]
Pressure (altimeter): 29.79 inches Hg (1009.0 mb)
Winds: from the WNW (300 degrees) at 12 MPH (10 knots; 5.1 m/s)
Visibility: 6 or more miles (10+ km)
Ceiling: at least 12,000 feet AGL
Clouds: few clouds at 10000 feet AGL
Weather: no significant weather observed at this time

Forecast for: UBBG (GYANDZHA , AZ)
Text: TAF UBBG 180500Z 1806/1906 VRB04KT 9999 FEW040 BKN080 TX26/1812Z TN18/1902Z
Forecast period: 0600 to 1000 UTC 18 September 2021
Forecast type: FROM: standard forecast or significant change
Winds: variable direction winds at 5 MPH (4 knots; 2.1 m/s)
Visibility: 6 or more miles (10+ km)
Ceiling: 8000 feet AGL
Clouds: few clouds at 4000 feet AGL
broken clouds at 8000 feet AGL
Weather: no significant weather forecast for this period
Text: TEMPO 1806/1810 30008KT
Forecast period: 0600 to 1000 UTC 18 September 2021
Forecast type: TEMPORARY: The following changes expected for less than half the time period
Winds: from the WNW (300 degrees) at 9 MPH (8 knots; 4.1 m/s)
Visibility: missing
Ceiling: unknown
Clouds: missing
Weather: no significant weather forecast for this period
Text: BECMG 1810/1812 07010KT
Forecast period: 1000 UTC 18 September 2021 to 0600 UTC 19 September 2021
Forecast type: BECOMING: Conditions expected to become as follows by 1200 UTC 18 September 2021
Winds: from the ENE (70 degrees) at 12 MPH (10 knots; 5.1 m/s)
Visibility: 6 or more miles (10+ km)
Ceiling: 8000 feet AGL
Clouds: few clouds at 4000 feet AGL
broken clouds at 8000 feet AGL
Weather: no significant weather forecast for this period
Text: TEMPO 1812/1818 VRB10KT SCT030CB BKN060
Forecast period: 1200 to 1800 UTC 18 September 2021
Forecast type: TEMPORARY: The following changes expected for less than half the time period
Winds: variable direction winds at 12 MPH (10 knots; 5.1 m/s)
Visibility: missing
Ceiling: 6000 feet AGL
Clouds: scattered clouds at 3000 feet AGL
broken clouds at 6000 feet AGL
Weather: no significant weather forecast for this period